Time;durP1;ratioP1;P1;durP2;ratioP2;P2;SDS_P1;SDS_P2;PMS_P1;PMS_P2;Temp;Humidity;BMP_temperature;BMP_pressure;BME280_temperature;BME280_humidity;BME280_pressure;Samples;Min_cycle;Max_cycle;Signal;HPM_P1;HPM_P2
2022/10/14 00:01:06;;;;;;;;;;;11.00;99.90;;;;;;5054606;28;20122;-76
2022/10/14 00:03:32;;;;;;;60.20;36.92;;;11.10;99.90;;;;;;5053055;28;19913;-78
2022/10/14 00:05:58;;;;;;;61.58;39.13;;;11.20;99.90;;;;;;5052538;28;20048;-78
2022/10/14 00:08:24;;;;;;;66.80;40.40;;;11.20;99.90;;;;;;5052923;28;20425;-75
2022/10/14 00:10:53;;;;;;;64.40;40.95;;;11.30;99.90;;;;;;5052622;28;20025;-77
2022/10/14 00:13:18;;;;;;;63.05;38.50;;;11.30;99.90;;;;;;5052487;28;20025;-76
2022/10/14 00:15:44;;;;;;;65.55;39.47;;;11.30;99.90;;;;;;5052569;28;20053;-78
2022/10/14 00:18:09;;;;;;;65.85;40.47;;;11.40;99.90;;;;;;5052766;28;20017;-76
2022/10/14 00:20:35;;;;;;;63.97;39.70;;;11.40;99.90;;;;;;5053161;28;20021;-78
2022/10/14 00:23:01;;;;;;;65.07;39.53;;;11.40;99.90;;;;;;5054784;28;20075;-77
2022/10/14 00:25:27;;;;;;;56.75;36.33;;;11.40;99.90;;;;;;5053131;28;20029;-76
2022/10/14 00:27:53;;;;;;;60.28;40.55;;;11.40;99.90;;;;;;5053465;28;20436;-77
2022/10/14 00:30:19;;;;;;;55.80;37.15;;;11.50;99.90;;;;;;5054072;28;20029;-76
2022/10/14 00:32:45;;;;;;;66.15;40.15;;;11.50;99.90;;;;;;5052506;28;20032;-76
2022/10/14 00:35:10;;;;;;;63.45;38.53;;;11.50;99.90;;;;;;5053176;28;20068;-75
2022/10/14 00:37:36;;;;;;;57.22;38.42;;;11.50;99.90;;;;;;5052769;28;20025;-77
2022/10/14 00:40:03;;;;;;;58.53;37.70;;;11.50;99.90;;;;;;5053370;28;20055;-78
2022/10/14 00:42:32;;;;;;;59.10;38.75;;;11.50;99.90;;;;;;5053137;28;20029;-76
2022/10/14 00:45:00;;;;;;;73.32;43.08;;;11.40;99.90;;;;;;5053348;28;20538;-76
2022/10/14 00:47:27;;;;;;;61.30;38.38;;;11.40;99.90;;;;;;5053197;28;20151;-77
2022/10/14 00:49:52;;;;;;;64.65;39.67;;;11.40;99.90;;;;;;5054199;28;20070;-76
2022/10/14 00:52:21;;;;;;;60.70;38.25;;;11.30;99.90;;;;;;5052938;28;20120;-77
2022/10/14 00:54:57;;;;;;;65.65;40.13;;;11.30;99.90;;;;;;5052748;28;20111;-76
2022/10/14 00:57:24;;;;;;;80.88;45.90;;;11.30;99.90;;;;;;5053369;28;20025;-76
2022/10/14 00:59:52;;;;;;;83.38;48.42;;;11.30;99.90;;;;;;5052587;28;20028;-76
2022/10/14 01:02:18;;;;;;;71.85;41.75;;;11.40;99.90;;;;;;5053222;28;20027;-76
2022/10/14 01:04:45;;;;;;;69.65;42.85;;;11.40;99.90;;;;;;5053051;28;20024;-76
2022/10/14 01:07:27;;;;;;;83.43;47.78;;;11.40;99.90;;;;;;5055529;28;20033;-77
2022/10/14 01:10:14;;;;;;;74.53;44.33;;;11.40;99.90;;;;;;5058913;28;20032;-77
2022/10/14 01:12:53;;;;;;;74.28;44.35;;;11.40;99.90;;;;;;5057787;28;20033;-77
2022/10/14 01:15:28;;;;;;;82.15;45.88;;;11.50;99.90;;;;;;5053229;28;20062;-76
2022/10/14 01:18:16;;;;;;;72.63;42.83;;;11.50;99.90;;;;;;5053903;28;20116;-77
2022/10/14 01:21:06;;;;;;;73.53;41.70;;;11.60;99.90;;;;;;5040955;28;20507;-75
2022/10/14 01:23:41;;;;;;;71.85;41.13;;;11.60;99.90;;;;;;5058311;28;20029;-77
2022/10/14 01:26:22;;;;;;;72.88;44.35;;;11.60;99.90;;;;;;5051563;28;20033;-77
2022/10/14 01:29:01;;;;;;;72.57;42.72;;;11.70;99.90;;;;;;5048946;28;20025;-77
2022/10/14 01:31:31;;;;;;;76.47;42.60;;;11.70;99.90;;;;;;5040251;28;20032;-76
2022/10/14 01:34:01;;;;;;;79.63;44.23;;;11.70;99.90;;;;;;5053861;28;20600;-77
2022/10/14 01:37:06;;;;;;;87.38;46.70;;;11.70;99.90;;;;;;5051521;28;20095;-76
2022/10/14 01:39:40;;;;;;;78.65;43.40;;;11.70;99.90;;;;;;5051772;28;20025;-76
2022/10/14 01:42:17;;;;;;;82.85;43.75;;;11.80;99.90;;;;;;5056609;28;20032;-75
2022/10/14 01:44:49;;;;;;;76.40;42.70;;;11.80;99.90;;;;;;5055610;28;20112;-77
2022/10/14 01:47:19;;;;;;;78.57;43.67;;;11.80;99.90;;;;;;5056573;28;20025;-76
2022/10/14 01:49:52;;;;;;;87.13;44.38;;;11.80;99.90;;;;;;5055848;28;20112;-77
2022/10/14 01:52:26;;;;;;;88.57;45.88;;;11.80;99.90;;;;;;5056950;28;20495;-76
2022/10/14 01:54:55;;;;;;;86.30;46.28;;;11.90;99.90;;;;;;5056843;28;20040;-77
2022/10/14 01:57:25;;;;;;;85.72;45.35;;;11.90;99.90;;;;;;5056112;28;20052;-76
2022/10/14 01:59:52;;;;;;;88.18;45.30;;;11.90;99.90;;;;;;5057028;28;20488;-77
2022/10/14 02:02:19;;;;;;;95.28;46.42;;;12.00;99.90;;;;;;5057896;28;20036;-77
2022/10/14 02:04:44;;;;;;;90.55;46.85;;;12.00;99.90;;;;;;5055509;28;20025;-76
2022/10/14 02:07:23;;;;;;;89.13;46.47;;;12.00;99.90;;;;;;5056109;28;20025;-76
2022/10/14 02:10:05;;;;;;;104.05;50.17;;;12.00;99.90;;;;;;5055766;28;20032;-76
2022/10/14 02:13:13;;;;;;;98.53;48.20;;;12.00;99.90;;;;;;5056420;28;20035;-77
2022/10/14 02:16:21;;;;;;;106.50;50.75;;;12.10;99.90;;;;;;5027100;28;20533;-77
2022/10/14 02:19:22;;;;;;;90.57;46.13;;;12.10;99.90;;;;;;5056837;28;20503;-77
2022/10/14 02:21:56;;;;;;;94.82;47.55;;;12.10;99.90;;;;;;4993950;28;20026;-77
2022/10/14 02:24:34;;;;;;;87.13;45.00;;;12.10;99.90;;;;;;5038847;28;20021;-76
2022/10/14 02:27:06;;;;;;;98.35;47.05;;;12.10;99.90;;;;;;5055489;28;20029;-77
2022/10/14 02:29:34;;;;;;;99.30;47.90;;;12.20;99.90;;;;;;5055296;28;20017;-77
2022/10/14 02:32:02;;;;;;;98.13;49.13;;;12.10;99.90;;;;;;5054534;28;20036;-76
2022/10/14 02:34:27;;;;;;;100.90;49.67;;;12.20;99.90;;;;;;5054988;28;20100;-77
2022/10/14 02:36:54;;;;;;;93.63;48.50;;;12.20;99.90;;;;;;5054362;28;20441;-76
2022/10/14 02:39:33;;;;;;;96.55;49.63;;;12.20;99.90;;;;;;5042034;28;20021;-77
2022/10/14 02:41:59;;;;;;;106.05;50.13;;;12.20;99.90;;;;;;5059758;28;20029;-77
2022/10/14 02:44:24;;;;;;;120.20;55.85;;;12.20;99.90;;;;;;5059640;28;20017;-76
2022/10/14 02:46:50;;;;;;;97.00;48.80;;;12.30;99.90;;;;;;5065068;28;20100;-77
2022/10/14 02:49:16;;;;;;;100.13;47.00;;;12.30;99.90;;;;;;5064422;28;20056;-76
2022/10/14 02:51:42;;;;;;;95.45;46.90;;;12.30;99.90;;;;;;5055527;28;20469;-76
2022/10/14 02:54:07;;;;;;;104.22;48.92;;;12.30;99.90;;;;;;5054993;28;20027;-76
2022/10/14 02:56:33;;;;;;;96.00;45.28;;;12.30;99.90;;;;;;5055090;28;20125;-76
2022/10/14 02:58:58;;;;;;;114.13;51.15;;;12.30;99.90;;;;;;5060817;28;20021;-76
2022/10/14 03:01:24;;;;;;;99.65;48.83;;;12.40;99.90;;;;;;5063373;28;20033;-76
2022/10/14 03:03:49;;;;;;;106.18;47.58;;;12.40;99.90;;;;;;5063798;28;20096;-77
2022/10/14 03:06:15;;;;;;;113.90;51.42;;;12.40;99.90;;;;;;5066388;28;20412;-77
2022/10/14 03:08:41;;;;;;;113.30;50.70;;;12.40;99.90;;;;;;5066064;28;20065;-75
2022/10/14 03:11:06;;;;;;;118.78;53.85;;;12.40;99.90;;;;;;5068004;28;20051;-77
2022/10/14 03:13:32;;;;;;;123.35;53.15;;;12.40;99.90;;;;;;5066983;28;20096;-76
2022/10/14 03:15:58;;;;;;;117.97;50.75;;;12.50;99.90;;;;;;5058208;28;20052;-77
2022/10/14 03:18:23;;;;;;;118.88;52.53;;;12.50;99.90;;;;;;5054748;28;20055;-76
2022/10/14 03:20:49;;;;;;;115.57;51.55;;;12.50;99.90;;;;;;5054318;28;20526;-76
2022/10/14 03:23:15;;;;;;;103.82;47.55;;;12.50;99.90;;;;;;5055015;28;20485;-76
2022/10/14 03:25:43;;;;;;;137.23;53.03;;;12.50;99.90;;;;;;5054528;28;20481;-77
2022/10/14 03:28:09;;;;;;;132.18;53.28;;;12.50;99.90;;;;;;5054571;28;20029;-76
2022/10/14 03:30:36;;;;;;;114.13;49.78;;;12.50;99.90;;;;;;5054221;28;20048;-76
2022/10/14 03:33:01;;;;;;;121.05;50.58;;;12.50;99.90;;;;;;5053806;28;20048;-77
2022/10/14 03:35:27;;;;;;;116.72;51.88;;;12.60;99.90;;;;;;5038950;28;20033;-77
2022/10/14 03:37:53;;;;;;;113.63;49.55;;;12.60;99.90;;;;;;5053958;28;20048;-76
2022/10/14 03:40:19;;;;;;;141.38;53.47;;;12.60;99.90;;;;;;5053424;28;20037;-76
2022/10/14 03:42:45;;;;;;;123.05;51.72;;;12.60;99.90;;;;;;5053201;28;20358;-76
2022/10/14 03:45:11;;;;;;;124.60;51.25;;;12.60;99.90;;;;;;5053606;28;20021;-77
2022/10/14 03:47:37;;;;;;;138.70;55.03;;;12.60;99.90;;;;;;5052924;28;20025;-78
2022/10/14 03:50:04;;;;;;;155.02;55.05;;;12.60;99.90;;;;;;5053284;28;20024;-76
2022/10/14 03:52:31;;;;;;;134.30;51.65;;;12.60;99.90;;;;;;5053852;28;20035;-76
2022/10/14 03:54:57;;;;;;;117.25;47.20;;;12.70;99.90;;;;;;5053910;28;20017;-77
2022/10/14 03:57:23;;;;;;;112.25;47.13;;;12.70;99.90;;;;;;5053572;28;20445;-76
2022/10/14 03:59:49;;;;;;;121.22;47.65;;;12.70;99.90;;;;;;5053953;28;20054;-77
2022/10/14 04:02:14;;;;;;;108.82;46.92;;;12.60;99.90;;;;;;5052230;28;20033;-76
2022/10/14 04:04:40;;;;;;;109.30;46.38;;;12.70;99.90;;;;;;5054217;28;20469;-79
2022/10/14 04:07:06;;;;;;;107.47;43.92;;;12.70;99.90;;;;;;5060182;28;20025;-76
2022/10/14 04:09:31;;;;;;;105.57;45.40;;;12.70;99.90;;;;;;5053219;28;20028;-76
2022/10/14 04:11:57;;;;;;;124.50;49.38;;;12.70;99.90;;;;;;5052930;28;20037;-76
2022/10/14 04:14:25;;;;;;;110.80;46.80;;;12.70;99.90;;;;;;5052811;28;20017;-77
2022/10/14 04:16:51;;;;;;;103.63;45.95;;;12.70;99.90;;;;;;5042284;28;20064;-75
2022/10/14 04:19:17;;;;;;;99.38;44.25;;;12.70;99.90;;;;;;5053097;28;20029;-77
2022/10/14 04:21:43;;;;;;;92.78;41.78;;;12.70;99.90;;;;;;5057511;28;20057;-78
2022/10/14 04:24:08;;;;;;;97.88;43.40;;;12.80;99.90;;;;;;5058348;28;20046;-77
2022/10/14 04:26:35;;;;;;;107.47;42.03;;;12.80;99.90;;;;;;5053429;28;20017;-77
2022/10/14 04:29:01;;;;;;;92.28;42.53;;;12.70;99.90;;;;;;5052240;28;20413;-77
2022/10/14 04:31:26;;;;;;;82.65;38.75;;;12.80;99.90;;;;;;5052508;28;20138;-78
2022/10/14 04:33:52;;;;;;;90.75;39.45;;;12.80;99.90;;;;;;5052479;28;20453;-78
2022/10/14 04:36:18;;;;;;;83.25;38.42;;;12.80;99.90;;;;;;5052661;28;20029;-76
2022/10/14 04:38:43;;;;;;;93.93;40.50;;;12.80;99.90;;;;;;5052175;28;20028;-76
2022/10/14 04:41:09;;;;;;;91.25;41.60;;;12.80;99.90;;;;;;5053573;28;20096;-76
2022/10/14 04:43:34;;;;;;;82.57;39.30;;;12.80;99.90;;;;;;5052840;28;20075;-77
2022/10/14 04:46:00;;;;;;;76.32;36.35;;;12.80;99.90;;;;;;5052464;28;20025;-77
2022/10/14 04:48:26;;;;;;;81.75;37.72;;;12.80;99.90;;;;;;5052969;28;20025;-77
2022/10/14 04:50:52;;;;;;;76.40;36.97;;;12.80;99.90;;;;;;5052511;28;20032;-77
2022/10/14 04:53:18;;;;;;;72.00;35.22;;;12.90;99.90;;;;;;5052021;28;20040;-76
2022/10/14 04:55:45;;;;;;;72.78;36.75;;;12.80;99.90;;;;;;5052692;28;20098;-76
2022/10/14 04:58:11;;;;;;;74.30;36.70;;;12.80;99.90;;;;;;5052610;28;20047;-78
2022/10/14 05:00:37;;;;;;;64.20;34.17;;;12.80;99.90;;;;;;5052188;28;20473;-76
2022/10/14 05:03:04;;;;;;;62.63;34.20;;;12.90;99.90;;;;;;5055345;28;20063;-77
2022/10/14 05:05:30;;;;;;;60.60;32.60;;;12.80;99.90;;;;;;5053272;28;20021;-77
2022/10/14 05:07:55;;;;;;;56.50;32.83;;;12.90;99.90;;;;;;5047441;28;20032;-75
2022/10/14 05:10:21;;;;;;;56.28;31.92;;;12.90;99.90;;;;;;5051731;28;20037;-77
2022/10/14 05:12:47;;;;;;;54.25;30.83;;;12.90;99.90;;;;;;5051255;28;20071;-78
2022/10/14 05:15:12;;;;;;;55.08;31.85;;;12.90;99.90;;;;;;5051307;28;20041;-79
2022/10/14 05:17:38;;;;;;;49.20;30.52;;;12.90;99.90;;;;;;5052157;28;20075;-78
2022/10/14 05:20:07;;;;;;;47.25;28.67;;;12.90;99.90;;;;;;5051052;28;20032;-79
2022/10/14 05:22:33;;;;;;;47.45;26.75;;;12.90;99.90;;;;;;5047721;28;20033;-77
2022/10/14 05:24:58;;;;;;;49.08;28.63;;;12.90;99.90;;;;;;5050004;28;20040;-78
2022/10/14 05:27:24;;;;;;;49.13;27.90;;;12.90;99.90;;;;;;5053736;28;20017;-81
2022/10/14 05:29:51;;;;;;;43.92;26.90;;;12.90;99.90;;;;;;5054849;28;20484;-77
2022/10/14 05:32:17;;;;;;;43.53;26.63;;;12.90;99.90;;;;;;5054075;28;20629;-78
2022/10/14 05:34:43;;;;;;;46.97;25.70;;;12.90;99.90;;;;;;5050087;28;20039;-77
2022/10/14 05:37:09;;;;;;;42.22;26.23;;;12.90;99.90;;;;;;5050898;28;20108;-77
2022/10/14 05:39:34;;;;;;;41.47;25.33;;;12.90;99.90;;;;;;5050696;28;20025;-77
2022/10/14 05:42:00;;;;;;;38.67;24.02;;;12.90;99.90;;;;;;5051374;28;20075;-79
2022/10/14 05:44:25;;;;;;;41.50;25.10;;;12.80;99.90;;;;;;5036243;28;20080;-79
2022/10/14 05:46:51;;;;;;;41.20;25.55;;;12.90;99.90;;;;;;5034656;28;20021;-79
2022/10/14 05:49:17;;;;;;;47.90;26.13;;;12.90;99.90;;;;;;5036382;28;20032;-79
2022/10/14 05:51:42;;;;;;;39.47;24.90;;;12.90;99.90;;;;;;5034388;28;20033;-80
2022/10/14 05:54:08;;;;;;;50.75;26.27;;;12.90;99.90;;;;;;5036042;28;20184;-79
2022/10/14 05:56:33;;;;;;;38.80;23.60;;;12.90;99.90;;;;;;5033462;28;20037;-78
2022/10/14 05:58:59;;;;;;;37.28;23.35;;;12.90;99.90;;;;;;5034417;28;20117;-79
2022/10/14 06:01:24;;;;;;;42.53;24.63;;;13.00;99.90;;;;;;5044321;28;20631;-78
2022/10/14 06:03:51;;;;;;;39.45;24.85;;;13.00;99.90;;;;;;5052733;28;20025;-79
2022/10/14 06:06:16;;;;;;;37.50;23.73;;;13.00;99.90;;;;;;5047337;28;20032;-78
2022/10/14 06:08:42;;;;;;;38.88;24.33;;;13.00;99.90;;;;;;5039915;28;20026;-83
2022/10/14 06:11:08;;;;;;;37.60;23.35;;;13.00;99.90;;;;;;5053539;28;20033;-82
2022/10/14 06:13:34;;;;;;;38.90;24.17;;;13.10;99.90;;;;;;5060976;28;20025;-83
2022/10/14 06:16:08;;;;;;;42.92;23.85;;;13.00;99.90;;;;;;5057603;28;20049;-77
2022/10/14 06:18:35;;;;;;;37.15;23.80;;;13.10;99.90;;;;;;5036763;28;20498;-79
2022/10/14 06:21:01;;;;;;;36.40;23.10;;;13.10;99.90;;;;;;5045711;28;20033;-83
2022/10/14 06:23:27;;;;;;;31.70;21.45;;;13.10;99.90;;;;;;5038385;28;20022;-78
2022/10/14 06:25:53;;;;;;;34.17;22.58;;;13.10;99.90;;;;;;5053366;28;20354;-80
2022/10/14 06:28:18;;;;;;;34.47;22.23;;;13.20;99.90;;;;;;5056624;28;20051;-79
2022/10/14 06:30:54;;;;;;;29.70;20.45;;;13.10;99.90;;;;;;5041765;28;20037;-85
2022/10/14 06:33:20;;;;;;;42.40;24.38;;;13.10;99.90;;;;;;5054332;28;20029;-84
2022/10/14 06:35:46;;;;;;;30.75;20.73;;;13.20;99.90;;;;;;5059891;28;20029;-86
2022/10/14 06:38:13;;;;;;;30.52;21.67;;;13.10;99.90;;;;;;5057244;28;20032;-84
2022/10/14 06:40:39;;;;;;;29.60;20.00;;;13.20;99.90;;;;;;5056326;28;20024;-86
2022/10/14 06:43:04;;;;;;;35.10;22.77;;;13.20;99.90;;;;;;5040488;28;20017;-85
2022/10/14 06:45:30;;;;;;;35.25;22.58;;;13.20;99.90;;;;;;5054567;28;20037;-85
2022/10/14 06:47:56;;;;;;;38.65;24.48;;;13.20;99.90;;;;;;5042074;28;20048;-84
2022/10/14 06:50:22;;;;;;;46.65;24.67;;;13.20;99.90;;;;;;5053237;28;20100;-84
2022/10/14 06:52:47;;;;;;;41.25;25.05;;;13.20;99.90;;;;;;5056744;28;20029;-81
2022/10/14 06:55:14;;;;;;;43.25;24.77;;;13.20;99.90;;;;;;5062288;28;20085;-78
2022/10/14 06:57:39;;;;;;;47.70;26.58;;;13.30;99.90;;;;;;5054413;28;20041;-82
2022/10/14 07:00:05;;;;;;;51.30;27.25;;;13.30;99.90;;;;;;5056096;28;20028;-82
2022/10/14 07:02:31;;;;;;;54.85;28.13;;;13.30;99.90;;;;;;5056034;28;20021;-80
2022/10/14 07:04:57;;;;;;;80.07;33.70;;;13.30;99.90;;;;;;5056322;28;20025;-82
2022/10/14 07:07:22;;;;;;;51.50;28.17;;;13.30;99.90;;;;;;5055096;28;20017;-83
2022/10/14 07:09:48;;;;;;;63.10;31.60;;;13.40;99.90;;;;;;5056280;28;20033;-81
2022/10/14 07:12:13;;;;;;;59.92;32.17;;;13.50;99.90;;;;;;5057597;28;20024;-82
2022/10/14 07:14:39;;;;;;;69.53;31.20;;;13.50;99.90;;;;;;5055296;28;20029;-79
2022/10/14 07:17:07;;;;;;;67.85;32.35;;;13.40;99.90;;;;;;5064640;28;20045;-79
2022/10/14 07:19:32;;;;;;;63.58;31.02;;;13.50;99.90;;;;;;5070085;28;20017;-79
2022/10/14 07:21:59;;;;;;;68.53;33.28;;;13.50;99.90;;;;;;5066176;28;20384;-79
2022/10/14 07:24:26;;;;;;;61.53;30.60;;;13.50;99.90;;;;;;5071689;28;20045;-79
2022/10/14 07:26:55;;;;;;;65.07;32.20;;;13.60;99.90;;;;;;5070607;28;20088;-80
2022/10/14 07:29:20;;;;;;;71.78;32.38;;;13.60;99.90;;;;;;5067068;28;20032;-79
2022/10/14 07:31:46;;;;;;;61.28;31.48;;;13.50;99.90;;;;;;5054013;28;20023;-80
2022/10/14 07:34:11;;;;;;;64.90;31.35;;;13.60;99.90;;;;;;5055823;28;20380;-78
2022/10/14 07:36:37;;;;;;;66.15;32.42;;;13.60;99.90;;;;;;5057411;28;20056;-80
2022/10/14 07:39:04;;;;;;;64.15;32.58;;;13.60;99.90;;;;;;5059889;28;20696;-79
2022/10/14 07:41:31;;;;;;;59.80;30.38;;;13.70;99.90;;;;;;5056888;28;20376;-81
2022/10/14 07:44:01;;;;;;;66.63;31.50;;;13.70;99.90;;;;;;5051518;28;20025;-83
2022/10/14 07:46:28;;;;;;;63.45;31.00;;;13.80;99.90;;;;;;5053497;28;20056;-80
2022/10/14 07:49:00;;;;;;;65.95;31.83;;;13.80;99.90;;;;;;5049157;28;20033;-79
2022/10/14 07:51:26;;;;;;;63.05;30.98;;;13.90;99.90;;;;;;5059083;28;20021;-78
2022/10/14 07:53:53;;;;;;;59.92;31.15;;;13.80;99.90;;;;;;5059904;28;20547;-80
2022/10/14 07:56:20;;;;;;;56.55;31.70;;;13.90;99.90;;;;;;5053276;28;20046;-77
2022/10/14 07:58:45;;;;;;;56.58;31.23;;;13.90;99.90;;;;;;5065239;28;20013;-79
2022/10/14 08:01:13;;;;;;;52.55;29.08;;;13.90;99.90;;;;;;5057815;28;20035;-79
2022/10/14 08:03:39;;;;;;;57.90;29.58;;;14.00;99.90;;;;;;5052280;28;20025;-79
2022/10/14 08:06:04;;;;;;;60.03;29.48;;;14.00;99.90;;;;;;5053141;28;20074;-78
2022/10/14 08:08:31;;;;;;;55.45;29.00;;;14.00;99.90;;;;;;5052100;28;20017;-80
2022/10/14 08:11:10;;;;;;;45.72;27.90;;;14.00;99.90;;;;;;5054799;28;20086;-79
2022/10/14 08:13:36;;;;;;;48.45;28.90;;;14.00;99.90;;;;;;5045504;28;20169;-78
2022/10/14 08:16:02;;;;;;;50.97;28.80;;;14.10;99.90;;;;;;5051159;28;20171;-81
2022/10/14 08:18:29;;;;;;;41.78;27.10;;;14.10;99.90;;;;;;5048395;28;20139;-79
2022/10/14 08:20:54;;;;;;;50.47;28.17;;;14.10;99.90;;;;;;5052046;28;20021;-79
2022/10/14 08:23:20;;;;;;;43.40;26.25;;;14.20;99.90;;;;;;5052595;28;20043;-79
2022/10/14 08:25:47;;;;;;;37.80;23.10;;;14.20;99.90;;;;;;5052182;28;20488;-77
2022/10/14 08:28:13;;;;;;;34.10;23.40;;;14.20;99.90;;;;;;5053186;28;20197;-79
2022/10/14 08:30:38;;;;;;;34.78;23.45;;;14.20;99.90;;;;;;5053935;28;20025;-78
2022/10/14 08:33:04;;;;;;;34.35;23.15;;;14.30;99.90;;;;;;5052986;28;20017;-78
2022/10/14 08:35:30;;;;;;;36.65;23.52;;;14.20;99.90;;;;;;5052590;28;20025;-78
2022/10/14 08:38:00;;;;;;;37.78;23.13;;;14.30;99.90;;;;;;5051855;28;20439;-78
2022/10/14 08:40:43;;;;;;;30.02;21.75;;;14.30;99.90;;;;;;5051793;28;20036;-78
2022/10/14 08:43:46;;;;;;;34.13;23.42;;;14.30;99.90;;;;;;5059570;28;20089;-78
2022/10/14 08:46:41;;;;;;;31.48;22.10;;;14.30;99.90;;;;;;5051694;28;20539;-79
2022/10/14 08:49:12;;;;;;;29.88;22.00;;;14.40;99.90;;;;;;5048817;28;20017;-78
2022/10/14 08:51:42;;;;;;;31.15;22.70;;;14.40;99.90;;;;;;5059975;28;20028;-78
2022/10/14 08:54:14;;;;;;;31.07;21.57;;;14.40;99.90;;;;;;5062568;28;20048;-78
2022/10/14 08:56:41;;;;;;;32.53;21.23;;;14.40;99.90;;;;;;5051611;28;20876;-79
2022/10/14 08:59:14;;;;;;;27.55;19.15;;;14.40;99.90;;;;;;5051171;28;20051;-79
2022/10/14 09:01:58;;;;;;;30.50;21.45;;;14.40;99.90;;;;;;5052572;28;20440;-79
2022/10/14 09:04:23;;;;;;;25.88;20.08;;;14.40;99.90;;;;;;5045334;28;20033;-80
2022/10/14 09:06:50;;;;;;;27.40;19.98;;;14.50;99.90;;;;;;5052309;28;20108;-80
2022/10/14 09:09:29;;;;;;;24.88;18.65;;;14.40;99.90;;;;;;5052989;28;20551;-79
2022/10/14 09:12:06;;;;;;;22.45;19.05;;;14.50;99.90;;;;;;5053700;28;20112;-79
2022/10/14 09:14:37;;;;;;;19.85;17.73;;;14.50;99.90;;;;;;5051531;28;20065;-79
2022/10/14 09:17:26;;;;;;;19.98;16.75;;;14.40;99.90;;;;;;5069334;28;20044;-79
2022/10/14 09:20:21;;;;;;;22.83;17.40;;;14.60;99.90;;;;;;5061183;28;20350;-79
2022/10/14 09:23:11;;;;;;;20.48;17.23;;;14.50;99.90;;;;;;5041351;28;20029;-79
2022/10/14 09:25:57;;;;;;;;;;;14.60;99.90;;;;;;5054448;28;20028;-80
2022/10/14 09:28:53;;;;;;;19.77;16.88;;;14.50;99.90;;;;;;5065887;28;19968;-79
2022/10/14 09:31:18;;;;;;;19.13;16.35;;;14.60;99.90;;;;;;5066765;28;20075;-79
2022/10/14 09:33:44;;;;;;;18.58;15.57;;;14.60;99.90;;;;;;5057553;28;20041;-81
2022/10/14 09:36:16;;;;;;;19.55;15.50;;;14.60;99.90;;;;;;5052502;28;20087;-79
2022/10/14 09:38:42;;;;;;;16.65;14.80;;;14.60;99.90;;;;;;5057440;28;20028;-78
2022/10/14 09:41:13;;;;;;;17.25;15.48;;;14.60;99.90;;;;;;5058197;28;20028;-79
2022/10/14 09:44:18;;;;;;;17.38;14.52;;;14.70;99.90;;;;;;5051846;28;20112;-78
2022/10/14 09:46:51;;;;;;;16.20;14.50;;;14.80;99.90;;;;;;5060744;28;20041;-79
2022/10/14 09:49:41;;;;;;;15.73;14.07;;;14.90;99.90;;;;;;5063786;28;20097;-78
2022/10/14 09:52:18;;;;;;;14.67;12.50;;;14.90;99.90;;;;;;5055362;28;20033;-79
2022/10/14 09:54:46;;;;;;;14.02;12.13;;;14.90;99.90;;;;;;5049923;28;20029;-78
2022/10/14 09:57:17;;;;;;;13.68;12.35;;;15.00;99.90;;;;;;5048430;28;20036;-80
2022/10/14 10:00:02;;;;;;;12.52;11.43;;;15.00;99.90;;;;;;5057499;28;20032;-77
2022/10/14 10:02:40;;;;;;;12.70;11.35;;;15.10;99.90;;;;;;5060907;28;20041;-80
2022/10/14 10:05:26;;;;;;;12.23;10.63;;;15.10;99.90;;;;;;5056820;28;20079;-79
2022/10/14 10:08:13;;;;;;;11.18;10.13;;;15.10;99.90;;;;;;5054449;28;20021;-80
2022/10/14 10:10:39;;;;;;;10.88;9.77;;;15.20;99.90;;;;;;5051278;28;20516;-80
2022/10/14 10:13:21;;;;;;;10.60;9.70;;;15.20;99.90;;;;;;5072269;28;20025;-77
2022/10/14 10:16:02;;;;;;;10.63;9.73;;;15.30;99.90;;;;;;5066193;28;20101;-77
2022/10/14 10:18:28;;;;;;;9.68;8.77;;;15.30;99.90;;;;;;5065054;28;20052;-79
2022/10/14 10:21:14;;;;;;;9.80;9.00;;;15.40;99.90;;;;;;5055391;28;20402;-79
2022/10/14 10:23:50;;;;;;;10.30;9.40;;;15.40;99.90;;;;;;5054340;28;20025;-79
2022/10/14 10:26:29;;;;;;;10.20;9.30;;;15.40;99.90;;;;;;5054989;28;20020;-80
2022/10/14 10:28:56;;;;;;;10.38;9.25;;;15.40;99.90;;;;;;5054635;28;20472;-77
2022/10/14 10:31:40;;;;;;;10.63;9.73;;;15.30;99.90;;;;;;5055585;28;20017;-79
2022/10/14 10:34:30;;;;;;;10.38;9.57;;;15.30;99.90;;;;;;5055418;28;20053;-78
2022/10/14 10:37:04;;;;;;;10.93;9.95;;;15.30;99.90;;;;;;5054472;28;20072;-80
2022/10/14 10:39:48;;;;;;;11.20;10.30;;;15.20;99.90;;;;;;5050364;28;20029;-76
2022/10/14 10:42:48;;;;;;;11.23;10.02;;;15.20;99.90;;;;;;5055721;28;20106;-80
2022/10/14 10:45:16;;;;;;;10.45;9.65;;;15.10;99.90;;;;;;5003577;28;20038;-80
2022/10/14 10:48:00;;;;;;;11.32;10.45;;;15.10;99.90;;;;;;5056673;28;20480;-79
2022/10/14 10:51:06;;;;;;;11.45;10.50;;;15.20;99.90;;;;;;5057672;28;20029;-80
2022/10/14 10:54:14;;;;;;;13.90;12.60;;;15.20;99.90;;;;;;5059575;28;20036;-81
2022/10/14 10:56:56;;;;;;;12.70;11.43;;;15.30;99.90;;;;;;5044915;28;20509;-81
2022/10/14 10:59:25;;;;;;;10.15;9.30;;;15.30;99.90;;;;;;5057364;28;20049;-81
2022/10/14 11:02:17;;;;;;;10.65;9.85;;;15.30;99.90;;;;;;5059383;28;20537;-80
2022/10/14 11:04:55;;;;;;;10.65;9.63;;;15.40;99.90;;;;;;5060440;28;20033;-82
2022/10/14 11:14:11;;;;;;;7.68;7.07;;;15.50;99.90;;;;;;5063688;28;20044;-79
2022/10/14 11:16:45;;;;;;;8.40;7.80;;;15.40;99.90;;;;;;5064199;28;20071;-79
2022/10/14 11:19:32;;;;;;;11.48;10.10;;;15.40;99.90;;;;;;5056998;28;20026;-81
2022/10/14 11:22:13;;;;;;;8.68;8.00;;;15.40;99.90;;;;;;5048309;28;20032;-80
2022/10/14 11:25:05;;;;;;;9.63;8.68;;;15.30;99.90;;;;;;5047375;28;20155;-81
2022/10/14 11:28:08;;;;;;;20.58;11.63;;;15.30;99.90;;;;;;5050254;28;20455;-82
2022/10/14 11:30:43;;;;;;;22.98;11.20;;;15.30;99.90;;;;;;5035995;28;20072;-82
2022/10/14 11:33:27;;;;;;;9.05;8.07;;;15.30;99.90;;;;;;5065361;28;20025;-80
2022/10/14 11:36:31;;;;;;;10.13;9.15;;;15.40;99.90;;;;;;5068516;28;20033;-83
2022/10/14 11:39:27;;;;;;;8.57;7.85;;;15.40;99.90;;;;;;5074433;28;20029;-77
2022/10/14 11:42:19;;;;;;;7.25;6.65;;;15.40;99.90;;;;;;5070649;28;20032;-80
2022/10/14 11:44:47;;;;;;;6.88;6.30;;;15.50;99.90;;;;;;5069123;28;20013;-81
2022/10/14 11:47:26;;;;;;;6.75;6.15;;;15.50;99.90;;;;;;5077280;28;20081;-84
2022/10/14 11:50:16;;;;;;;6.55;6.03;;;15.60;99.90;;;;;;5073393;28;20048;-83
2022/10/14 11:53:07;;;;;;;6.38;5.93;;;15.60;99.90;;;;;;5045028;28;20033;-78
2022/10/14 11:55:38;;;;;;;6.07;5.60;;;15.60;99.90;;;;;;5045501;28;20037;-81
2022/10/14 11:58:16;;;;;;;6.25;5.82;;;15.60;99.90;;;;;;5023642;28;20030;-79
2022/10/14 12:00:46;;;;;;;6.07;5.60;;;15.60;99.90;;;;;;5058523;28;20120;-82
2022/10/14 12:03:14;;;;;;;5.82;5.43;;;15.90;99.90;;;;;;5059169;28;20049;-78
2022/10/14 12:06:09;;;;;;;6.43;5.93;;;15.70;99.90;;;;;;5053138;28;20098;-82
2022/10/14 12:08:59;;;;;;;5.68;5.10;;;15.80;99.90;;;;;;5048230;28;20112;-81
2022/10/14 12:11:48;;;;;;;6.20;5.70;;;15.80;99.90;;;;;;5063080;28;20056;-80
2022/10/14 12:14:35;;;;;;;7.40;6.80;;;15.90;99.90;;;;;;5059442;28;20044;-82
2022/10/14 12:17:17;;;;;;;7.43;5.88;;;15.90;99.90;;;;;;5052399;28;20049;-80
2022/10/14 12:19:43;;;;;;;7.57;6.85;;;15.90;99.90;;;;;;5058773;28;20528;-82
2022/10/14 12:22:17;;;;;;;8.38;6.78;;;15.90;99.90;;;;;;5050628;28;20075;-79
2022/10/14 12:24:50;;;;;;;8.60;7.03;;;15.90;99.90;;;;;;5057899;28;20025;-80
2022/10/14 12:27:18;;;;;;;7.75;7.05;;;15.90;99.90;;;;;;5055958;28;20021;-80
2022/10/14 12:29:46;;;;;;;8.60;7.70;;;15.90;99.90;;;;;;5052196;28;20108;-80
2022/10/14 12:32:19;;;;;;;9.00;7.10;;;15.90;99.90;;;;;;5048198;28;20023;-82
2022/10/14 12:34:49;;;;;;;8.35;7.55;;;15.90;99.90;;;;;;5057747;28;20021;-79
2022/10/14 12:37:26;;;;;;;9.07;8.25;;;16.00;99.90;;;;;;5058625;28;20047;-81
2022/10/14 12:39:53;;;;;;;8.73;8.02;;;15.90;99.90;;;;;;5054815;28;20013;-81
2022/10/14 12:42:20;;;;;;;9.75;8.85;;;16.00;99.90;;;;;;5053635;28;20350;-80
2022/10/14 12:44:55;;;;;;;10.15;9.25;;;16.00;99.90;;;;;;5053146;28;20021;-79
2022/10/14 12:47:21;;;;;;;10.15;9.23;;;16.10;99.90;;;;;;5055674;28;20101;-78
2022/10/14 12:49:50;;;;;;;11.20;10.20;;;16.10;99.90;;;;;;5052931;28;20495;-79
2022/10/14 12:52:26;;;;;;;10.50;9.60;;;16.10;99.90;;;;;;5043208;28;20036;-78
2022/10/14 12:54:53;;;;;;;11.50;10.50;;;16.10;99.90;;;;;;5038766;28;20385;-78
2022/10/14 12:57:25;;;;;;;13.07;11.75;;;16.10;99.90;;;;;;5037988;28;20033;-78